Terminal Aerodrome Forecast
Issued by NWS

Home | Current Version | Previous Version | Text Only | Print | Product List | Glossary On
Versions: 1 2 3 4 5 6 7 8 9 10 11 12 13 14 15 16
000
FTAK31 PANC 221321 AAA
TAFAGK
TAF AMD
PAGK 221321Z 2213/2312 07003KT 3SM -SN OVC020
      TEMPO 2213/2215 1SM -SN BKN010
     FM221700 34005KT P6SM BKN020
     FM222100 VRB03KT P6SM SCT020=

USA.gov is the U.S. government's official web portal to all federal, state and local government web resources and services.